Ana Sayfa
METAR-TAF:

METAR-TAF

Havaalanları :

Ottawa, Ontario, Kanada

Enlem: 45-19N, Boylam: 075-40W, yükseklik: 116 m

Güncel hava durumu gözlemi

Rapor saat 14:00 UTC de 40 dakika önce yapıldı.
Rüzgar kuzey/kuzeybatıdan 12 kt
Sıcaklık -12°C
Nem 72%
Basınç 1023 hPa
Görüş mesafesi: 24.1 km
Açık gökyüzü

METAR: CYOW 291400Z 33012KT 15SM SKC M12/M16 A3021 RMK SLP239

Saat: 09:40 (14:40 UTC)

Tahmin

Rapor saat 11:38 UTC de 3 saat ve 2 dakika önce yapıldı.
Ayın 29'si saat 12 UTC'den ayın 30'si saat 12 UTC'ye kadar geçerli Tahmin
Rüzgar kuzeybatıdan 8 kt
Görüş mesafesi: 10 km
Açık gökyüzü
Dönüşüyor
ayın 30'si saat 02 UTC'den ayın 30'si saat 04 UTC'ye kadar
Rüzgar değişken yönden 3 kt

TAF: CYOW 291138Z 2912/3012 31008KT P6SM SKC BECMG 3002/3004 VRB03KT RMK NXT FCST BY 291500Z

4.000'den fazla havaalanı için hava durumu gözlemleri ve tahminleri (METAR ve TAF raporları).

Kullanılabilir istasyonlar harita üzerinde sarı ve kırmızı noktalarla gösterilir.

İstasyonun adını görmek için fareyi noktanın üzerinde gezdirin.

Sonrasında hava gözlem ve tahminlerini görmek için tıklayın.

Haritayı değiştirmek için: yaklaştırmak için siyah artı işaretli yeşil düğmeye ve uzaklaştırmak için de eksi işaretli düğmeye hızla tıklayın; bitişik haritalar için yeşil okları kullanın.


METAR-TAF: